createdAt,value
2022-11-29T00:01:14.856Z,35.80
2022-11-29T00:03:42.662Z,34.00
2022-11-29T00:06:12.999Z,37.37
2022-11-29T00:08:41.885Z,38.57
2022-11-29T00:11:15.108Z,37.40
2022-11-29T00:13:42.197Z,38.22
2022-11-29T00:16:12.811Z,43.10
2022-11-29T00:18:40.211Z,38.60
2022-11-29T00:21:09.153Z,37.77
2022-11-29T00:23:36.670Z,36.53
2022-11-29T00:26:05.703Z,40.30
2022-11-29T00:28:33.546Z,37.27
2022-11-29T00:31:01.390Z,39.03
2022-11-29T00:33:29.423Z,45.50
2022-11-29T00:36:00.544Z,39.90
2022-11-29T00:38:28.523Z,37.47
2022-11-29T00:40:55.796Z,38.17
2022-11-29T00:43:22.903Z,37.17
2022-11-29T00:45:50.150Z,42.83
2022-11-29T00:48:17.560Z,37.13
2022-11-29T00:50:45.015Z,33.93
2022-11-29T00:53:12.506Z,36.43
2022-11-29T00:55:39.732Z,36.30
2022-11-29T00:58:07.199Z,39.33
2022-11-29T01:00:34.628Z,40.73
2022-11-29T01:03:03.047Z,36.47
2022-11-29T01:05:31.893Z,37.03
2022-11-29T01:07:59.573Z,40.40
2022-11-29T01:10:26.819Z,37.10
2022-11-29T01:12:55.115Z,38.73
2022-11-29T01:15:23.007Z,40.03
2022-11-29T01:17:50.515Z,35.43
2022-11-29T01:20:17.843Z,36.37
2022-11-29T01:22:44.988Z,35.10
2022-11-29T01:25:14.104Z,39.37
2022-11-29T01:27:42.206Z,32.87
2022-11-29T01:30:10.746Z,37.37
2022-11-29T01:32:38.218Z,35.33
2022-11-29T01:35:07.227Z,37.17
2022-11-29T01:37:34.628Z,43.37
2022-11-29T01:40:02.475Z,37.33
2022-11-29T01:42:29.329Z,39.97
2022-11-29T01:45:07.587Z,34.87
2022-11-29T01:50:23.330Z,36.40
2022-11-29T01:52:50.695Z,41.27
2022-11-29T01:55:19.228Z,37.13
2022-11-29T01:57:47.742Z,40.70
2022-11-29T02:00:18.964Z,38.87
2022-11-29T02:03:02.422Z,32.27
2022-11-29T02:05:30.311Z,30.30
2022-11-29T02:07:59.632Z,37.03
2022-11-29T02:10:45.545Z,35.50
2022-11-29T02:13:15.450Z,32.43
2022-11-29T02:16:08.677Z,36.93
2022-11-29T02:18:58.141Z,36.40
2022-11-29T02:21:55.863Z,30.50
2022-11-29T02:24:31.729Z,32.33
2022-11-29T02:27:17.733Z,32.10
2022-11-29T02:29:44.872Z,35.33
2022-11-29T02:32:45.947Z,35.07
2022-11-29T02:35:18.152Z,37.00
2022-11-29T02:38:22.562Z,36.27
2022-11-29T02:40:55.765Z,35.45
2022-11-29T02:43:45.229Z,37.53
2022-11-29T02:46:45.468Z,37.97
2022-11-29T02:49:33.995Z,35.17
2022-11-29T02:52:11.189Z,42.43
2022-11-29T02:55:04.947Z,39.00
2022-11-29T02:57:49.241Z,36.45
2022-11-29T03:00:21.650Z,39.70
2022-11-29T03:02:52.754Z,35.00
2022-11-29T03:05:24.590Z,37.27
2022-11-29T03:08:14.148Z,39.47
2022-11-29T03:11:04.461Z,38.57
2022-11-29T03:13:37.928Z,39.07
2022-11-29T03:16:44.837Z,37.33
2022-11-29T03:19:39.094Z,36.30
2022-11-29T03:24:56.473Z,38.67
2022-11-29T03:27:47.318Z,39.37
2022-11-29T03:30:19.752Z,41.87
2022-11-29T03:33:24.761Z,42.80
2022-11-29T03:36:09.539Z,36.30
2022-11-29T03:38:45.616Z,33.77
2022-11-29T03:41:32.772Z,41.30
2022-11-29T03:44:09.022Z,36.37
2022-11-29T03:47:08.855Z,39.67
2022-11-29T03:49:45.776Z,42.50
2022-11-29T03:52:34.508Z,39.37
2022-11-29T03:55:23.152Z,37.87
2022-11-29T03:58:08.927Z,39.73
2022-11-29T04:00:51.154Z,37.90
2022-11-29T04:03:46.265Z,37.23
2022-11-29T04:06:36.996Z,38.23
2022-11-29T04:09:22.578Z,38.90
2022-11-29T04:12:11.118Z,36.93
2022-11-29T04:15:08.780Z,42.57
2022-11-29T04:18:13.056Z,40.17
2022-11-29T04:20:55.198Z,44.23
2022-11-29T04:23:51.903Z,44.67
2022-11-29T04:26:22.031Z,39.27
2022-11-29T04:29:08.587Z,44.47
2022-11-29T04:31:46.476Z,41.80
2022-11-29T04:34:35.015Z,38.83
2022-11-29T04:37:32.629Z,39.50
2022-11-29T04:40:28.371Z,36.43
2022-11-29T04:43:17.133Z,39.90
2022-11-29T04:46:05.232Z,37.60
2022-11-29T04:49:09.713Z,39.63
2022-11-29T04:51:54.299Z,36.92
2022-11-29T04:54:46.192Z,38.47
2022-11-29T04:57:27.834Z,38.67
2022-11-29T05:00:30.225Z,37.77
2022-11-29T05:03:14.009Z,37.50
2022-11-29T05:05:43.775Z,38.30
2022-11-29T05:08:56.917Z,45.53
2022-11-29T05:11:50.604Z,34.43
2022-11-29T05:14:27.570Z,34.78
2022-11-29T05:17:40.625Z,34.37
2022-11-29T05:20:19.777Z,32.03
2022-11-29T05:23:05.552Z,31.70
2022-11-29T05:25:55.902Z,36.00
2022-11-29T05:28:34.183Z,33.00
2022-11-29T05:31:19.686Z,38.80
2022-11-29T05:34:31.669Z,37.63
2022-11-29T05:37:52.050Z,34.43
2022-11-29T05:40:37.780Z,38.50
2022-11-29T05:43:22.865Z,36.70
2022-11-29T05:45:58.189Z,38.37
2022-11-29T05:48:29.523Z,37.17
2022-11-29T05:51:33.937Z,39.33
2022-11-29T05:54:07.313Z,38.97
2022-11-29T05:56:43.762Z,36.95
2022-11-29T05:59:19.342Z,39.83
2022-11-29T06:02:10.159Z,35.13
2022-11-29T06:05:08.250Z,39.90
2022-11-29T06:07:45.902Z,41.07
2022-11-29T06:10:18.185Z,37.40
2022-11-29T06:13:22.372Z,37.67
2022-11-29T06:15:58.435Z,34.38
2022-11-29T06:18:40.593Z,36.50
2022-11-29T06:21:28.057Z,39.57
2022-11-29T06:24:09.291Z,34.10
2022-11-29T06:26:42.293Z,37.97
2022-11-29T06:29:41.420Z,38.33
2022-11-29T06:32:37.614Z,39.87
2022-11-29T06:35:12.038Z,36.27
2022-11-29T06:37:44.504Z,35.23
2022-11-29T06:40:16.205Z,37.27
2022-11-29T06:42:45.097Z,34.57
2022-11-29T06:45:16.100Z,35.83
2022-11-29T06:47:46.584Z,36.93
2022-11-29T06:50:29.096Z,37.93
2022-11-29T06:53:21.361Z,38.93
2022-11-29T06:56:13.970Z,37.07
2022-11-29T06:58:43.926Z,35.70
2022-11-29T07:01:14.248Z,36.63
2022-11-29T07:04:20.140Z,33.83
2022-11-29T07:06:48.082Z,32.00
2022-11-29T07:09:18.951Z,36.10
2022-11-29T07:11:47.924Z,38.40
2022-11-29T07:14:15.737Z,34.03
2022-11-29T07:17:02.476Z,38.67
2022-11-29T07:20:18.807Z,32.93
2022-11-29T07:23:06.242Z,28.50
2022-11-29T07:25:59.189Z,38.27
2022-11-29T07:28:26.715Z,31.63
2022-11-29T07:31:02.848Z,35.30
2022-11-29T07:33:47.885Z,37.50
2022-11-29T07:36:26.447Z,33.87
2022-11-29T07:39:08.712Z,36.00
2022-11-29T07:51:42.643Z,32.17
2022-11-29T07:54:13.876Z,38.43
2022-11-29T07:56:40.410Z,31.07
2022-11-29T07:59:11.512Z,34.87
2022-11-29T08:01:38.994Z,42.90
2022-11-29T08:04:06.539Z,36.67
2022-11-29T08:06:33.584Z,37.60
2022-11-29T08:09:01.793Z,32.27
2022-11-29T08:11:29.537Z,36.20
2022-11-29T08:14:02.293Z,30.53
2022-11-29T08:16:30.260Z,39.37
2022-11-29T08:18:57.678Z,31.10
2022-11-29T08:21:25.183Z,36.17
2022-11-29T08:23:52.128Z,41.40
2022-11-29T08:26:22.764Z,36.47
2022-11-29T08:28:56.672Z,37.20
2022-11-29T08:31:23.271Z,34.73
2022-11-29T08:33:49.836Z,33.70
2022-11-29T08:36:19.025Z,34.13
2022-11-29T08:38:46.911Z,34.20
2022-11-29T08:41:16.344Z,42.03
2022-11-29T08:43:44.444Z,33.80
2022-11-29T08:46:16.924Z,33.03
2022-11-29T08:48:46.452Z,35.03
2022-11-29T08:51:14.650Z,68.23
2022-11-29T08:53:42.126Z,37.63
2022-11-29T08:59:06.915Z,39.83
2022-11-29T09:01:34.326Z,35.40
2022-11-29T09:04:05.188Z,40.47
2022-11-29T09:06:41.028Z,58.67
2022-11-29T09:09:08.661Z,38.43
2022-11-29T09:11:36.779Z,47.90
2022-11-29T09:14:06.510Z,38.23
2022-11-29T09:16:36.597Z,37.00
2022-11-29T09:19:05.345Z,36.73
2022-11-29T09:21:35.343Z,38.20
2022-11-29T09:24:06.638Z,35.83
2022-11-29T09:26:36.466Z,37.60
2022-11-29T09:29:05.905Z,33.73
2022-11-29T09:31:34.822Z,37.87
2022-11-29T09:34:02.895Z,35.87
2022-11-29T09:36:31.785Z,34.33
2022-11-29T09:39:03.269Z,35.57
2022-11-29T09:41:59.016Z,34.73
2022-11-29T09:45:01.298Z,34.73
2022-11-29T09:48:19.655Z,37.47
2022-11-29T09:51:02.909Z,38.93
2022-11-29T09:53:55.132Z,35.70
2022-11-29T09:56:30.857Z,31.53
2022-11-29T09:59:11.613Z,28.33
2022-11-29T10:01:46.525Z,32.85
2022-11-29T10:04:21.927Z,30.03
2022-11-29T10:07:15.118Z,34.67
2022-11-29T10:09:49.116Z,41.10
2022-11-29T10:12:41.143Z,36.25
2022-11-29T10:15:17.398Z,28.87
2022-11-29T10:18:31.144Z,33.50
2022-11-29T10:21:05.155Z,36.13
2022-11-29T10:23:37.664Z,30.30
2022-11-29T10:26:08.397Z,36.80
2022-11-29T10:28:37.479Z,31.90
2022-11-29T10:31:16.854Z,34.50
2022-11-29T10:33:46.002Z,32.00
2022-11-29T10:36:25.937Z,33.07
2022-11-29T10:39:00.176Z,40.97
2022-11-29T10:41:27.832Z,35.43
2022-11-29T10:43:58.317Z,35.67
2022-11-29T10:46:35.464Z,32.33
2022-11-29T10:49:05.693Z,30.90
2022-11-29T10:51:35.281Z,28.00
2022-11-29T10:54:24.308Z,28.80
2022-11-29T10:56:52.549Z,37.10
2022-11-29T10:59:25.718Z,28.47
2022-11-29T11:02:02.518Z,21.23
2022-11-29T11:04:43.264Z,34.67
2022-11-29T11:07:28.288Z,29.93
2022-11-29T11:09:58.139Z,35.37
2022-11-29T11:12:30.957Z,36.67
2022-11-29T11:15:37.291Z,37.05
2022-11-29T11:18:07.138Z,32.30
2022-11-29T11:20:38.781Z,33.00
2022-11-29T11:23:30.986Z,36.30
2022-11-29T11:26:11.143Z,31.70
2022-11-29T11:28:53.262Z,36.67
2022-11-29T11:31:38.700Z,28.90
2022-11-29T11:34:50.728Z,42.50
2022-11-29T11:37:29.407Z,35.90
2022-11-29T11:40:18.732Z,37.33
2022-11-29T11:42:46.817Z,33.50
2022-11-29T11:45:14.245Z,33.70
2022-11-29T11:47:52.533Z,31.17
2022-11-29T11:50:52.691Z,30.23
2022-11-29T11:53:24.598Z,27.87
2022-11-29T11:55:54.843Z,29.52
2022-11-29T11:58:27.532Z,28.53
2022-11-29T12:01:05.314Z,29.27
2022-11-29T12:03:51.550Z,29.87
2022-11-29T12:06:30.149Z,30.20
2022-11-29T12:09:04.551Z,33.20
2022-11-29T12:11:52.751Z,32.67
2022-11-29T12:14:33.451Z,32.17
2022-11-29T12:17:10.055Z,31.10
2022-11-29T12:19:50.252Z,26.07
2022-11-29T12:22:26.017Z,28.60
2022-11-29T12:25:03.124Z,31.48
2022-11-29T12:27:32.042Z,32.33
2022-11-29T12:29:59.380Z,31.10
2022-11-29T12:32:43.138Z,36.20
2022-11-29T12:35:38.300Z,32.72
2022-11-29T12:38:11.442Z,26.63
2022-11-29T12:41:00.687Z,29.80
2022-11-29T12:43:49.387Z,33.57
2022-11-29T12:46:28.055Z,38.67
2022-11-29T12:49:16.925Z,28.87
2022-11-29T12:51:55.941Z,33.63
2022-11-29T12:54:43.684Z,25.43
2022-11-29T12:57:30.024Z,31.90
2022-11-29T13:00:07.661Z,30.93
2022-11-29T13:03:25.319Z,30.27
2022-11-29T13:06:40.251Z,29.13
2022-11-29T13:12:23.991Z,27.50
2022-11-29T13:15:02.883Z,30.93
2022-11-29T13:18:04.162Z,26.93
2022-11-29T13:20:38.027Z,28.77
2022-11-29T13:26:34.454Z,31.23
2022-11-29T13:29:03.527Z,33.13
2022-11-29T13:31:31.469Z,30.40
2022-11-29T13:34:06.587Z,26.97
2022-11-29T13:36:52.447Z,27.47
2022-11-29T13:39:37.761Z,28.83
2022-11-29T13:42:25.876Z,27.07
2022-11-29T13:44:57.761Z,27.57
2022-11-29T13:47:25.360Z,24.10
2022-11-29T13:49:57.664Z,27.13
2022-11-29T13:52:29.914Z,24.23
2022-11-29T13:55:29.014Z,23.07
2022-11-29T13:58:17.725Z,29.13
2022-11-29T14:00:45.359Z,25.10
2022-11-29T14:03:25.291Z,21.60
2022-11-29T14:05:53.479Z,23.47
2022-11-29T14:12:04.706Z,32.10
2022-11-29T14:22:07.771Z,26.20
2022-11-29T14:24:34.874Z,29.83
2022-11-29T14:27:10.495Z,26.77
2022-11-29T14:29:55.450Z,29.73
2022-11-29T14:32:28.106Z,32.73
2022-11-29T14:35:01.099Z,29.60
2022-11-29T14:37:54.383Z,32.13
2022-11-29T14:40:43.054Z,32.15
2022-11-29T14:43:33.451Z,32.67
2022-11-29T14:46:29.433Z,31.57
2022-11-29T14:48:57.049Z,34.13
2022-11-29T14:51:28.193Z,34.53
2022-11-29T14:54:16.568Z,31.93
2022-11-29T14:56:45.406Z,32.73
2022-11-29T14:59:52.004Z,30.83
2022-11-29T15:02:25.771Z,34.57
2022-11-29T15:04:56.956Z,32.07
2022-11-29T15:08:07.152Z,34.13
2022-11-29T15:11:10.618Z,35.30
2022-11-29T15:13:55.015Z,34.80
2022-11-29T15:16:56.152Z,32.40
2022-11-29T15:19:54.200Z,32.93
2022-11-29T15:22:43.677Z,31.67
2022-11-29T15:25:26.495Z,36.20
2022-11-29T15:27:58.458Z,38.27
2022-11-29T15:30:32.402Z,38.53
2022-11-29T15:33:01.491Z,41.90
2022-11-29T15:35:29.456Z,41.97
2022-11-29T15:37:57.187Z,41.73
2022-11-29T15:40:31.701Z,38.80
2022-11-29T15:43:12.180Z,40.80
2022-11-29T15:45:40.021Z,42.00
2022-11-29T15:48:22.454Z,34.47
2022-11-29T15:51:24.790Z,39.60
2022-11-29T15:54:18.862Z,37.53
2022-11-29T15:56:53.755Z,33.65
2022-11-29T15:59:36.951Z,33.03
2022-11-29T16:02:26.913Z,34.25
2022-11-29T16:04:58.645Z,33.07
2022-11-29T16:07:32.687Z,33.33
2022-11-29T16:10:11.072Z,35.80
2022-11-29T16:12:54.832Z,38.50
2022-11-29T16:15:34.645Z,34.33
2022-11-29T16:18:24.739Z,37.37
2022-11-29T16:21:03.711Z,43.50
2022-11-29T16:23:39.778Z,73.80
2022-11-29T16:26:34.014Z,63.67
2022-11-29T16:31:37.571Z,53.00
2022-11-29T16:34:24.564Z,40.40
2022-11-29T16:37:04.365Z,41.37
2022-11-29T16:39:32.578Z,47.23
2022-11-29T16:42:26.053Z,50.30
2022-11-29T16:45:07.751Z,67.43
2022-11-29T16:47:53.318Z,47.07
2022-11-29T16:50:23.594Z,44.27
2022-11-29T16:52:56.289Z,48.63
2022-11-29T16:55:23.825Z,45.22
2022-11-29T16:57:52.481Z,44.03
2022-11-29T17:00:32.611Z,49.03
2022-11-29T17:03:00.261Z,43.60
2022-11-29T17:05:27.963Z,38.90
2022-11-29T17:12:08.537Z,39.50
2022-11-29T17:14:35.470Z,42.42
2022-11-29T17:17:02.730Z,35.77
2022-11-29T17:19:30.610Z,37.87
2022-11-29T17:21:58.296Z,37.77
2022-11-29T17:24:25.528Z,38.40
2022-11-29T17:26:52.789Z,42.70
2022-11-29T17:29:20.401Z,40.83
2022-11-29T17:31:50.737Z,39.97
2022-11-29T17:34:18.341Z,37.20
2022-11-29T17:36:45.876Z,37.87
2022-11-29T17:39:13.994Z,38.50
2022-11-29T17:41:41.227Z,42.93
2022-11-29T17:44:08.533Z,40.93
2022-11-29T17:46:37.346Z,40.47
2022-11-29T17:49:07.360Z,42.97
2022-11-29T17:51:54.275Z,38.97
2022-11-29T17:54:24.837Z,38.03
2022-11-29T17:56:52.643Z,38.87
2022-11-29T17:59:20.154Z,43.83
2022-11-29T18:01:50.471Z,41.83
2022-11-29T18:04:17.961Z,43.90
2022-11-29T18:06:50.497Z,45.10
2022-11-29T18:09:19.862Z,36.80
2022-11-29T18:11:50.091Z,39.73
2022-11-29T18:14:24.314Z,38.10
2022-11-29T18:16:52.668Z,38.83
2022-11-29T18:19:22.246Z,41.73
2022-11-29T18:21:50.727Z,36.93
2022-11-29T18:24:18.694Z,34.97
2022-11-29T18:26:46.251Z,39.60
2022-11-29T18:29:13.643Z,45.33
2022-11-29T18:31:44.333Z,53.30
2022-11-29T18:34:13.626Z,45.80
2022-11-29T18:36:46.792Z,47.43
2022-11-29T18:39:16.917Z,47.10
2022-11-29T18:41:46.540Z,44.50
2022-11-29T18:44:15.731Z,47.63
2022-11-29T18:46:44.555Z,41.13
2022-11-29T18:49:14.839Z,41.10
2022-11-29T18:51:45.498Z,39.90
2022-11-29T18:54:14.868Z,42.67
2022-11-29T18:56:42.563Z,46.00
2022-11-29T18:59:17.348Z,40.43
2022-11-29T19:01:48.460Z,38.80
2022-11-29T19:04:19.267Z,42.43
2022-11-29T19:06:46.876Z,35.27
2022-11-29T19:09:17.833Z,37.50
2022-11-29T19:11:45.267Z,46.10
2022-11-29T19:14:13.329Z,59.20
2022-11-29T19:16:44.101Z,41.07
2022-11-29T19:19:12.426Z,39.30
2022-11-29T19:21:40.503Z,38.50
2022-11-29T19:24:14.537Z,37.57
2022-11-29T19:26:46.764Z,42.20
2022-11-29T19:29:15.585Z,39.47
2022-11-29T19:31:43.409Z,37.97
2022-11-29T19:34:11.501Z,44.67
2022-11-29T19:36:44.140Z,42.77
2022-11-29T19:39:16.778Z,51.00
2022-11-29T19:41:46.813Z,41.83
2022-11-29T19:44:14.303Z,39.50
2022-11-29T19:46:44.627Z,46.23
2022-11-29T19:49:13.059Z,42.47
2022-11-29T19:51:40.874Z,50.10
2022-11-29T19:54:10.170Z,48.93
2022-11-29T19:56:38.648Z,44.93
2022-11-29T19:59:07.205Z,52.13
2022-11-29T20:01:43.432Z,48.40
2022-11-29T20:04:13.811Z,41.40
2022-11-29T20:06:42.081Z,42.77
2022-11-29T20:09:12.939Z,44.37
2022-11-29T20:11:40.449Z,45.17
2022-11-29T20:14:09.255Z,48.50
2022-11-29T20:16:38.376Z,46.10
2022-11-29T20:19:18.332Z,50.20
2022-11-29T20:21:49.482Z,50.20
2022-11-29T20:24:17.829Z,49.00
2022-11-29T20:26:47.611Z,49.80
2022-11-29T20:29:16.074Z,48.93
2022-11-29T20:31:50.141Z,47.93
2022-11-29T20:34:18.735Z,49.43
2022-11-29T20:36:52.128Z,43.23
2022-11-29T20:40:00.364Z,44.67
2022-11-29T20:42:49.716Z,38.37
2022-11-29T20:45:17.511Z,42.40
2022-11-29T20:48:03.243Z,38.20
2022-11-29T20:50:32.257Z,39.30
2022-11-29T20:53:27.474Z,36.27
2022-11-29T20:55:54.687Z,38.83
2022-11-29T20:58:22.128Z,36.53
2022-11-29T21:00:49.355Z,42.10
2022-11-29T21:03:18.451Z,39.23
2022-11-29T21:05:48.506Z,41.20
2022-11-29T21:08:17.611Z,41.20
2022-11-29T21:10:46.314Z,38.30
2022-11-29T21:13:15.105Z,39.50
2022-11-29T21:15:43.682Z,37.13
2022-11-29T21:18:26.859Z,39.30
2022-11-29T21:21:25.479Z,38.73
2022-11-29T21:24:07.225Z,38.00
2022-11-29T21:26:42.209Z,37.17
2022-11-29T21:29:22.240Z,34.93
2022-11-29T21:31:53.062Z,37.97
2022-11-29T21:34:21.428Z,38.50
2022-11-29T21:36:57.862Z,36.10
2022-11-29T21:39:31.933Z,35.73
2022-11-29T21:41:59.334Z,36.17
2022-11-29T21:44:26.943Z,31.13
2022-11-29T21:46:57.181Z,34.30
2022-11-29T21:49:24.767Z,37.13
2022-11-29T21:51:52.434Z,32.40
2022-11-29T21:54:19.820Z,34.73
2022-11-29T21:56:47.244Z,35.43
2022-11-29T21:59:14.447Z,34.27
2022-11-29T22:01:42.101Z,35.27
2022-11-29T22:04:09.884Z,39.67
2022-11-29T22:06:37.692Z,48.07
2022-11-29T22:09:05.829Z,38.83
2022-11-29T22:11:34.716Z,36.70
2022-11-29T22:14:14.209Z,36.03
2022-11-29T22:16:43.248Z,31.67
2022-11-29T22:19:14.962Z,36.27
2022-11-29T22:21:44.957Z,38.50
2022-11-29T22:24:14.508Z,37.07
2022-11-29T22:26:43.915Z,34.17
2022-11-29T22:29:14.793Z,33.67
2022-11-29T22:31:43.595Z,37.23
2022-11-29T22:34:11.781Z,37.90
2022-11-29T22:36:39.892Z,36.63
2022-11-29T22:39:08.202Z,37.60
2022-11-29T22:41:36.849Z,43.27
2022-11-29T22:44:04.548Z,35.67
2022-11-29T22:46:32.425Z,41.40
2022-11-29T22:49:03.422Z,37.10
2022-11-29T22:51:35.758Z,34.93
2022-11-29T22:54:06.204Z,34.00
2022-11-29T22:56:39.348Z,33.63
2022-11-29T22:59:06.700Z,36.35
2022-11-29T23:01:36.442Z,36.27
2022-11-29T23:04:06.392Z,34.83
2022-11-29T23:06:40.872Z,37.57
2022-11-29T23:09:16.852Z,32.00
2022-11-29T23:11:45.955Z,36.37
2022-11-29T23:14:13.688Z,35.43
2022-11-29T23:16:41.427Z,34.90
2022-11-29T23:19:10.825Z,38.27
2022-11-29T23:21:42.992Z,34.77
2022-11-29T23:24:10.743Z,38.17
2022-11-29T23:26:40.958Z,31.87
2022-11-29T23:29:11.411Z,37.87
2022-11-29T23:31:39.276Z,35.97
2022-11-29T23:34:06.946Z,35.10
2022-11-29T23:36:34.714Z,34.07
2022-11-29T23:39:01.932Z,40.97
2022-11-29T23:41:29.176Z,36.47
2022-11-29T23:43:56.698Z,35.60
2022-11-29T23:46:25.145Z,41.10
2022-11-29T23:48:53.168Z,36.00
2022-11-29T23:51:21.121Z,40.33
2022-11-29T23:53:53.462Z,36.97
2022-11-29T23:56:22.246Z,40.87
2022-11-29T23:58:49.898Z,45.03
